createdAt,value
2023-05-24T00:01:54.581Z,9.95
2023-05-24T00:06:56.184Z,10.35
2023-05-24T00:11:58.003Z,7.72
2023-05-24T00:16:59.679Z,10.88
2023-05-24T00:22:01.229Z,9.63
2023-05-24T00:27:02.789Z,9.30
2023-05-24T00:32:04.699Z,11.25
2023-05-24T00:37:06.275Z,7.45
2023-05-24T00:42:07.973Z,6.85
2023-05-24T00:47:09.520Z,8.85
2023-05-24T00:52:11.337Z,11.27
2023-05-24T00:57:13.046Z,13.38
2023-05-24T01:02:14.751Z,5.75
2023-05-24T01:07:20.320Z,7.35
2023-05-24T01:12:56.300Z,12.00
2023-05-24T01:18:22.698Z,13.05
2023-05-24T01:24:01.658Z,8.85
2023-05-24T01:29:04.146Z,9.25
2023-05-24T01:34:06.384Z,13.48
2023-05-24T01:39:08.043Z,11.88
2023-05-24T01:44:32.233Z,8.90
2023-05-24T01:49:42.159Z,11.02
2023-05-24T01:54:48.021Z,10.50
2023-05-24T01:59:52.075Z,8.55
2023-05-24T02:04:54.256Z,13.70
2023-05-24T02:09:55.863Z,9.55
2023-05-24T02:14:58.637Z,15.23
2023-05-24T02:20:00.334Z,10.15
2023-05-24T02:25:02.025Z,9.23
2023-05-24T02:30:04.216Z,9.32
2023-05-24T02:35:05.981Z,12.13
2023-05-24T02:40:08.158Z,15.30
2023-05-24T02:45:10.041Z,9.32
2023-05-24T02:50:11.659Z,9.07
2023-05-24T02:55:13.208Z,12.57
2023-05-24T03:00:15.555Z,8.45
2023-05-24T03:05:19.101Z,10.55
2023-05-24T03:10:20.790Z,10.93
2023-05-24T03:15:22.438Z,13.25
2023-05-24T03:20:24.276Z,12.63
2023-05-24T03:25:26.540Z,16.33
2023-05-24T03:30:28.812Z,13.57
2023-05-24T03:35:33.981Z,10.10
2023-05-24T03:40:35.638Z,15.90
2023-05-24T03:45:41.950Z,13.17
2023-05-24T03:50:43.963Z,7.97
2023-05-24T03:55:46.248Z,17.95
2023-05-24T04:00:47.909Z,14.07
2023-05-24T04:05:49.564Z,14.48
2023-05-24T04:10:51.238Z,11.95
2023-05-24T04:15:52.827Z,14.00
2023-05-24T04:20:54.492Z,13.90
2023-05-24T04:25:56.057Z,11.05
2023-05-24T04:30:57.843Z,9.52
2023-05-24T04:35:59.438Z,8.38
2023-05-24T04:41:01.773Z,15.68
2023-05-24T04:46:04.990Z,14.30
2023-05-24T04:51:07.390Z,12.23
2023-05-24T04:56:09.048Z,9.73
2023-05-24T05:01:10.684Z,8.45
2023-05-24T05:06:12.330Z,16.42
2023-05-24T05:11:14.916Z,8.90
2023-05-24T05:16:16.532Z,10.13
2023-05-24T05:21:20.484Z,7.40
2023-05-24T05:26:22.040Z,13.63
2023-05-24T05:31:24.127Z,10.43
2023-05-24T05:36:26.463Z,10.43
2023-05-24T05:41:28.072Z,10.32
2023-05-24T05:46:29.783Z,10.10
2023-05-24T05:51:31.493Z,11.30
2023-05-24T05:56:33.060Z,11.43
2023-05-24T06:01:34.662Z,14.18
2023-05-24T06:06:36.432Z,15.30
2023-05-24T06:11:39.204Z,13.60
2023-05-24T06:16:40.880Z,15.40
2023-05-24T06:21:42.645Z,13.57
2023-05-24T06:26:44.284Z,12.02
2023-05-24T06:31:46.291Z,12.80
2023-05-24T06:36:48.154Z,14.80
2023-05-24T06:41:49.864Z,12.85
2023-05-24T06:46:54.471Z,9.80
2023-05-24T06:51:56.053Z,8.95
2023-05-24T06:56:57.596Z,11.93
2023-05-24T07:02:03.743Z,12.68
2023-05-24T07:07:05.997Z,10.73
2023-05-24T07:12:09.123Z,12.60
2023-05-24T07:17:11.084Z,8.88
2023-05-24T07:22:12.768Z,12.77
2023-05-24T07:27:14.339Z,10.80
2023-05-24T07:32:16.042Z,13.35
2023-05-24T07:37:17.675Z,8.07
2023-05-24T07:42:19.313Z,10.57
2023-05-24T07:47:21.067Z,10.32
2023-05-24T07:52:22.633Z,11.23
2023-05-24T07:57:24.221Z,10.02
2023-05-24T08:02:25.847Z,13.63
2023-05-24T08:07:27.558Z,14.70
2023-05-24T08:12:29.205Z,6.70
2023-05-24T08:17:30.822Z,9.27
2023-05-24T08:22:32.462Z,8.95
2023-05-24T08:27:34.053Z,14.85
2023-05-24T08:32:35.640Z,11.60
2023-05-24T08:37:37.186Z,11.32
2023-05-24T08:42:39.138Z,10.68
2023-05-24T08:47:41.472Z,10.65
2023-05-24T08:52:45.897Z,11.00
2023-05-24T08:57:48.550Z,9.70
2023-05-24T09:02:50.326Z,8.75
2023-05-24T09:07:54.245Z,13.55
2023-05-24T09:12:58.186Z,14.10
2023-05-24T09:17:59.847Z,8.48
2023-05-24T09:23:04.462Z,8.68
2023-05-24T09:28:06.894Z,9.10
2023-05-24T09:33:08.557Z,11.70
2023-05-24T09:38:21.210Z,8.82
2023-05-24T09:43:24.903Z,7.72
2023-05-24T09:48:27.967Z,8.20
2023-05-24T09:53:30.157Z,9.73
2023-05-24T09:58:32.298Z,9.55
2023-05-24T10:03:35.335Z,11.80
2023-05-24T10:08:37.141Z,10.27
2023-05-24T10:13:39.755Z,11.35
2023-05-24T10:18:41.338Z,9.73
2023-05-24T10:23:45.135Z,9.57
2023-05-24T10:29:01.509Z,11.70
2023-05-24T10:34:08.502Z,8.50
2023-05-24T10:39:10.643Z,7.78
2023-05-24T10:44:13.510Z,12.88
2023-05-24T10:49:15.957Z,11.20
2023-05-24T10:54:19.254Z,9.77
2023-05-24T10:59:29.610Z,11.15
2023-05-24T11:04:34.005Z,12.70
2023-05-24T11:09:38.938Z,8.85
2023-05-24T11:14:40.538Z,13.73
2023-05-24T11:19:53.744Z,11.25
2023-05-24T11:24:56.060Z,14.30
2023-05-24T11:29:58.841Z,12.10
2023-05-24T11:35:00.435Z,11.18
2023-05-24T11:40:02.795Z,10.00
2023-05-24T11:45:06.167Z,9.40
2023-05-24T11:50:08.123Z,7.53
2023-05-24T11:55:14.330Z,12.20
2023-05-24T12:00:24.762Z,8.52
2023-05-24T12:05:26.345Z,10.93
2023-05-24T12:10:28.028Z,10.07
2023-05-24T12:15:30.294Z,14.80
2023-05-24T12:20:31.934Z,11.88
2023-05-24T12:25:33.535Z,11.40
2023-05-24T12:30:37.671Z,11.48
2023-05-24T12:35:42.412Z,9.32
2023-05-24T12:40:44.203Z,12.93
2023-05-24T12:45:46.803Z,16.20
2023-05-24T12:50:48.340Z,12.57
2023-05-24T12:55:50.080Z,7.20
2023-05-24T13:00:51.855Z,12.02
2023-05-24T13:05:53.569Z,12.13
2023-05-24T13:10:55.274Z,9.82
2023-05-24T13:15:56.936Z,10.07
2023-05-24T13:20:58.729Z,7.90
2023-05-24T13:26:00.365Z,9.93
2023-05-24T13:31:01.993Z,10.68
2023-05-24T13:36:03.758Z,10.32
2023-05-24T13:41:05.452Z,11.13
2023-05-24T13:46:08.004Z,11.48
2023-05-24T13:51:11.037Z,10.35
2023-05-24T13:56:12.674Z,11.75
2023-05-24T14:01:14.283Z,7.25
2023-05-24T14:06:16.257Z,6.80
2023-05-24T14:11:17.955Z,8.90
2023-05-24T14:16:20.161Z,8.95
2023-05-24T14:21:21.851Z,10.68
2023-05-24T14:26:23.700Z,14.27
2023-05-24T14:31:25.723Z,8.57
2023-05-24T14:36:27.336Z,10.13
2023-05-24T14:41:28.948Z,10.85
2023-05-24T14:46:30.701Z,11.30
2023-05-24T14:51:32.361Z,8.80
2023-05-24T14:56:34.024Z,9.98
2023-05-24T15:01:35.752Z,6.18
2023-05-24T15:06:37.430Z,11.63
2023-05-24T15:11:39.073Z,10.18
2023-05-24T15:16:40.723Z,14.02
2023-05-24T15:21:42.342Z,9.40
2023-05-24T15:26:43.963Z,16.45
2023-05-24T15:31:45.584Z,13.15
2023-05-24T15:36:47.241Z,10.02
2023-05-24T15:41:48.834Z,13.38
2023-05-24T15:46:50.428Z,9.20
2023-05-24T15:56:56.523Z,9.15
2023-05-24T16:01:58.159Z,9.10
2023-05-24T16:06:59.786Z,12.60
2023-05-24T16:12:01.441Z,9.38
2023-05-24T16:17:04.474Z,7.35
2023-05-24T16:22:07.423Z,12.25
2023-05-24T16:27:08.986Z,10.95
2023-05-24T16:32:10.727Z,11.77
2023-05-24T16:37:12.490Z,10.07
2023-05-24T16:42:14.084Z,13.50
2023-05-24T16:47:15.673Z,14.70
2023-05-24T16:52:17.266Z,13.95
2023-05-24T16:57:18.929Z,9.30
2023-05-24T17:02:20.553Z,10.30
2023-05-24T17:07:22.252Z,14.15
2023-05-24T17:12:23.822Z,9.40
2023-05-24T17:17:25.433Z,11.00
2023-05-24T17:22:27.010Z,12.50
2023-05-24T17:27:28.559Z,9.45
2023-05-24T17:32:30.177Z,10.57
2023-05-24T17:37:31.841Z,8.10
2023-05-24T17:42:33.442Z,8.93
2023-05-24T17:47:35.035Z,8.98
2023-05-24T17:52:36.860Z,11.40
2023-05-24T17:57:38.452Z,10.65
2023-05-24T18:02:40.070Z,10.52
2023-05-24T18:07:41.680Z,11.20
2023-05-24T18:12:43.234Z,12.52
2023-05-24T18:17:44.915Z,11.75
2023-05-24T18:22:46.496Z,10.48
2023-05-24T18:27:48.170Z,15.30
2023-05-24T18:33:04.409Z,8.82
2023-05-24T18:38:07.386Z,8.57
2023-05-24T18:43:09.013Z,13.70
2023-05-24T18:48:10.700Z,10.60
2023-05-24T18:53:12.339Z,11.13
2023-05-24T18:58:13.965Z,9.68
2023-05-24T19:03:15.651Z,15.45
2023-05-24T19:08:17.337Z,12.35
2023-05-24T19:13:18.959Z,12.98
2023-05-24T19:18:20.492Z,13.48
2023-05-24T19:23:22.133Z,12.60
2023-05-24T19:28:23.766Z,12.45
2023-05-24T19:33:25.351Z,14.85
2023-05-24T19:38:27.101Z,13.30
2023-05-24T19:43:28.755Z,15.77
2023-05-24T19:48:30.332Z,15.75
2023-05-24T19:53:31.933Z,10.80
2023-05-24T19:58:33.633Z,14.10
2023-05-24T20:03:35.351Z,12.85
2023-05-24T20:08:36.993Z,18.15
2023-05-24T20:13:39.952Z,13.07
2023-05-24T20:18:41.545Z,13.00
2023-05-24T20:23:43.113Z,16.08
2023-05-24T20:28:44.692Z,13.57
2023-05-24T20:33:46.270Z,13.10
2023-05-24T20:38:48.158Z,14.80
2023-05-24T20:43:49.804Z,9.85
2023-05-24T20:48:51.408Z,11.50
2023-05-24T20:53:53.196Z,12.32
2023-05-24T20:58:54.824Z,12.73
2023-05-24T21:03:56.520Z,15.48
2023-05-24T21:08:58.144Z,12.38
2023-05-24T21:13:59.753Z,16.23
2023-05-24T21:19:01.358Z,14.30
2023-05-24T21:24:03.122Z,14.75
2023-05-24T21:29:04.676Z,10.73
2023-05-24T21:34:06.244Z,13.25
2023-05-24T21:39:07.856Z,15.48
2023-05-24T21:44:09.423Z,13.55
2023-05-24T21:49:10.998Z,14.05
2023-05-24T21:54:12.749Z,14.90
2023-05-24T21:59:14.395Z,16.38
2023-05-24T22:04:15.982Z,18.48
2023-05-24T22:09:17.599Z,17.40
2023-05-24T22:14:19.137Z,19.88
2023-05-24T22:19:28.733Z,16.13
2023-05-24T22:24:40.422Z,17.17
2023-05-24T22:29:42.084Z,15.13
2023-05-24T22:34:43.729Z,19.75
2023-05-24T22:39:45.334Z,17.67
2023-05-24T22:44:46.881Z,24.50
2023-05-24T22:49:48.516Z,19.33
2023-05-24T22:54:50.627Z,23.65
2023-05-24T22:59:52.586Z,21.75
2023-05-24T23:04:54.363Z,23.60
2023-05-24T23:09:56.014Z,28.85
2023-05-24T23:14:57.645Z,21.58
2023-05-24T23:19:59.305Z,24.88
2023-05-24T23:25:01.033Z,24.70
2023-05-24T23:30:02.731Z,20.00
2023-05-24T23:35:04.526Z,23.92
2023-05-24T23:40:06.662Z,19.65
2023-05-24T23:45:08.488Z,14.85
2023-05-24T23:50:10.427Z,15.77
2023-05-24T23:55:11.971Z,16.48
